Time;durP1;ratioP1;P1;durP2;ratioP2;P2;SDS_P1;SDS_P2;PMS_P1;PMS_P2;Temp;Humidity;BMP_temperature;BMP_pressure;BME280_temperature;BME280_humidity;BME280_pressure;Samples;Min_cycle;Max_cycle;Signal;HPM_P1;HPM_P2
2022/05/01 00:01:07;;;;;;;15.18;12.00;;;;;;;11.57;58.61;102402.31;5087233;28;20074;-61
2022/05/01 00:03:33;;;;;;;14.20;11.30;;;;;;;11.59;58.58;102401.00;5090345;28;20028;-61
2022/05/01 00:06:04;;;;;;;16.95;12.05;;;;;;;11.55;58.47;102397.84;5088874;28;20055;-61
2022/05/01 00:08:31;;;;;;;14.23;12.18;;;;;;;11.55;58.73;102396.94;5087402;28;20491;-61
2022/05/01 00:11:00;;;;;;;12.50;11.18;;;;;;;11.51;58.47;102399.34;5090545;28;20035;-61
2022/05/01 00:13:26;;;;;;;13.27;11.90;;;;;;;11.49;58.48;102401.47;5077919;28;20021;-61
2022/05/01 00:15:52;;;;;;;13.80;11.52;;;;;;;11.52;58.39;102400.19;5091248;28;20027;-61
2022/05/01 00:18:18;;;;;;;12.98;11.40;;;;;;;11.55;58.44;102392.28;5089394;28;20031;-61
2022/05/01 00:20:43;;;;;;;12.52;11.23;;;;;;;11.54;58.20;102393.31;5085496;28;20035;-61
2022/05/01 00:23:09;;;;;;;14.75;11.68;;;;;;;11.57;58.43;102402.31;5084690;28;20036;-61
2022/05/01 00:25:34;;;;;;;15.25;12.48;;;;;;;11.54;58.50;102398.88;5082969;28;20043;-61
2022/05/01 00:28:00;;;;;;;12.50;11.27;;;;;;;11.54;58.81;102389.69;5082487;28;20483;-61
2022/05/01 00:30:28;;;;;;;16.45;12.00;;;;;;;11.57;58.40;102392.03;5085652;28;20039;-61
2022/05/01 00:38:21;;;;;;;13.40;11.90;;;;;;;11.49;58.72;102401.47;5080319;28;20047;-61
2022/05/01 00:40:46;;;;;;;15.45;12.05;;;;;;;11.44;58.55;102387.41;5077808;28;20404;-61
2022/05/01 00:43:18;;;;;;;13.82;11.65;;;;;;;11.45;58.83;102386.31;5083349;28;20027;-61
2022/05/01 00:45:43;;;;;;;13.93;12.30;;;;;;;11.45;58.84;102394.66;5084111;28;20039;-61
2022/05/01 00:48:09;;;;;;;14.68;12.45;;;;;;;11.51;58.76;102392.91;5083973;28;20032;-61
2022/05/01 00:50:35;;;;;;;14.70;12.50;;;;;;;11.44;58.62;102390.19;5078394;28;20044;-61
2022/05/01 00:53:05;;;;;;;16.40;12.02;;;;;;;11.50;58.48;102389.28;5070932;28;20033;-61
2022/05/01 00:55:31;;;;;;;14.00;12.52;;;;;;;11.44;58.70;102381.84;5082789;28;20032;-61
2022/05/01 00:57:57;;;;;;;16.40;12.35;;;;;;;11.46;58.75;102376.91;5090484;28;20028;-61
2022/05/01 01:00:22;;;;;;;16.15;12.32;;;;;;;11.43;58.87;102382.91;5089303;28;20036;-61
2022/05/01 01:02:47;;;;;;;14.45;11.63;;;;;;;11.41;58.83;102382.28;5086065;28;20059;-61
2022/05/01 01:05:14;;;;;;;14.85;12.32;;;;;;;11.40;58.75;102382.50;5091051;28;20143;-61
2022/05/01 01:07:39;;;;;;;15.60;12.82;;;;;;;11.37;59.19;102381.00;5088683;28;20028;-61
2022/05/01 01:10:05;;;;;;;15.65;12.07;;;;;;;11.34;59.57;102375.88;5090170;28;20496;-61
2022/05/01 01:15:14;;;;;;;14.23;12.73;;;;;;;11.32;59.58;102383.63;5085527;28;20443;-61
2022/05/01 01:17:41;;;;;;;14.80;12.43;;;;;;;11.34;59.32;102375.03;5089815;28;20040;-61
2022/05/01 01:20:17;;;;;;;14.00;11.93;;;;;;;11.32;59.33;102372.50;5090901;28;20035;-61
2022/05/01 01:22:47;;;;;;;18.10;13.40;;;;;;;11.31;59.29;102373.53;5090167;28;20043;-61
2022/05/01 01:25:14;;;;;;;14.48;12.70;;;;;;;11.31;59.04;102376.31;5090340;28;20020;-61
2022/05/01 01:27:42;;;;;;;16.98;13.35;;;;;;;11.28;59.45;102369.31;5090138;28;20024;-61
2022/05/01 01:32:53;;;;;;;18.15;13.02;;;;;;;11.27;59.45;102377.84;5090524;28;20588;-61
2022/05/01 01:35:21;;;;;;;16.90;12.55;;;;;;;11.26;59.42;102378.94;5089898;28;20031;-61
2022/05/01 01:37:47;;;;;;;15.80;12.80;;;;;;;11.25;59.56;102372.53;5091934;28;20028;-61
2022/05/01 01:40:24;;;;;;;14.38;12.88;;;;;;;11.24;59.66;102376.38;5092684;28;20097;-61
2022/05/01 01:42:52;;;;;;;15.90;13.90;;;;;;;11.22;59.68;102372.09;5073992;28;20033;-61
2022/05/01 01:45:18;;;;;;;17.05;13.65;;;;;;;11.21;59.73;102371.25;5073169;28;20024;-61
2022/05/01 01:47:44;;;;;;;16.40;14.15;;;;;;;11.23;59.79;102374.66;5092952;28;20031;-61
2022/05/01 01:50:12;;;;;;;17.77;13.63;;;;;;;11.22;60.21;102363.75;5091003;28;20388;-61
2022/05/01 01:52:37;;;;;;;17.50;13.68;;;;;;;11.20;59.91;102369.56;5084731;28;20038;-61
2022/05/01 01:55:04;;;;;;;15.90;14.15;;;;;;;11.19;59.71;102375.31;5083855;28;20551;-62
2022/05/01 01:57:29;;;;;;;17.50;13.80;;;;;;;11.18;59.55;102373.63;5094186;28;20062;-61
2022/05/01 01:59:54;;;;;;;18.23;14.23;;;;;;;11.17;59.87;102374.69;5093176;28;20020;-61
2022/05/01 02:02:23;;;;;;;16.80;13.80;;;;;;;11.16;60.06;102371.06;5092337;28;20067;-61
2022/05/01 02:04:48;;;;;;;18.90;14.85;;;;;;;11.17;60.06;102374.69;5093219;28;20035;-61
2022/05/01 02:07:14;;;;;;;18.27;14.40;;;;;;;11.16;60.16;102367.41;5093225;28;20387;-61
2022/05/01 02:09:39;;;;;;;15.98;14.27;;;;;;;11.13;60.27;102371.50;5093679;28;20028;-61
2022/05/01 02:12:08;;;;;;;18.38;14.60;;;;;;;11.10;60.62;102363.59;5092055;28;20032;-61
2022/05/01 02:14:34;;;;;;;16.77;14.10;;;;;;;11.13;60.45;102365.09;5090962;28;20089;-61
2022/05/01 02:16:59;;;;;;;18.83;14.80;;;;;;;11.10;60.48;102362.75;5093658;28;20056;-61
2022/05/01 02:19:24;;;;;;;18.73;14.90;;;;;;;11.12;60.34;102360.59;5090192;28;20120;-61
2022/05/01 02:21:50;;;;;;;19.95;14.98;;;;;;;11.09;60.65;102359.13;5091183;28;20486;-61
2022/05/01 02:24:15;;;;;;;22.30;14.93;;;;;;;11.10;60.55;102360.81;5093268;28;20024;-61
2022/05/01 02:26:41;;;;;;;17.27;14.48;;;;;;;11.10;61.07;102362.75;5092685;28;20596;-61
2022/05/01 02:29:11;;;;;;;18.05;15.00;;;;;;;11.04;60.34;102354.22;5091504;28;20028;-61
2022/05/01 02:31:41;;;;;;;18.67;14.23;;;;;;;11.03;60.59;102355.28;5093471;28;20036;-61
2022/05/01 02:34:07;;;;;;;16.45;14.65;;;;;;;11.00;60.70;102352.97;5092659;28;20024;-62
2022/05/01 02:36:32;;;;;;;15.13;13.13;;;;;;;11.01;60.55;102346.31;5090059;28;20028;-61
2022/05/01 02:38:58;;;;;;;16.08;14.38;;;;;;;11.03;60.52;102344.16;5093330;28;20070;-61
2022/05/01 02:41:23;;;;;;;17.73;14.18;;;;;;;11.02;60.14;102342.47;5092511;28;20089;-61
2022/05/01 02:43:49;;;;;;;16.30;14.43;;;;;;;11.00;60.57;102332.63;5093067;28;20032;-61
2022/05/01 02:46:15;;;;;;;17.55;14.38;;;;;;;10.94;60.99;102337.16;5090528;28;20045;-61
2022/05/01 02:48:41;;;;;;;22.45;16.65;;;;;;;10.93;60.79;102335.47;5091792;28;20042;-61
2022/05/01 02:51:06;;;;;;;16.48;14.52;;;;;;;10.91;60.89;102340.38;5085187;28;20403;-61
2022/05/01 02:53:32;;;;;;;18.67;14.68;;;;;;;10.90;60.96;102341.44;5081349;28;20031;-61
2022/05/01 02:56:01;;;;;;;16.25;14.40;;;;;;;10.87;61.15;102347.44;5090289;28;20050;-61
2022/05/01 02:58:30;;;;;;;24.83;15.35;;;;;;;10.85;61.23;102338.47;5092781;28;20436;-61
2022/05/01 03:00:56;;;;;;;19.67;14.95;;;;;;;10.85;61.02;102341.25;5092059;28;20074;-61
2022/05/01 03:03:23;;;;;;;19.42;14.65;;;;;;;10.86;60.90;102339.34;5090544;28;20036;-61
2022/05/01 03:05:50;;;;;;;17.88;14.65;;;;;;;10.80;60.94;102341.88;5086361;28;20129;-61
2022/05/01 03:08:15;;;;;;;17.63;15.55;;;;;;;10.82;61.05;102338.91;5091428;28;20024;-62
2022/05/01 03:10:40;;;;;;;17.48;14.57;;;;;;;10.81;61.00;102331.66;5091665;28;20038;-61
2022/05/01 03:13:05;;;;;;;19.63;15.77;;;;;;;10.79;61.07;102337.41;5091877;28;20498;-61
2022/05/01 03:15:31;;;;;;;18.92;15.23;;;;;;;10.75;61.27;102335.31;5088531;28;20035;-61
2022/05/01 03:23:24;;;;;;;17.95;15.88;;;;;;;10.71;61.29;102326.53;5079016;28;20429;-60
2022/05/01 03:25:49;;;;;;;17.40;14.90;;;;;;;10.70;61.29;102335.97;5092292;28;20028;-60
2022/05/01 03:28:15;;;;;;;18.25;15.95;;;;;;;10.67;61.67;102332.75;5090261;28;20123;-61
2022/05/01 03:30:40;;;;;;;18.33;16.05;;;;;;;10.64;61.51;102327.63;5090413;28;20027;-61
2022/05/01 03:33:07;;;;;;;19.67;16.52;;;;;;;10.59;61.42;102324.66;5089865;28;20433;-60
2022/05/01 03:35:35;;;;;;;19.75;16.23;;;;;;;10.56;61.36;102324.00;5091196;28;20478;-61
2022/05/01 03:38:02;;;;;;;18.38;16.48;;;;;;;10.54;62.12;102315.06;5088927;28;20040;-61
2022/05/01 03:40:27;;;;;;;21.25;16.45;;;;;;;10.52;61.80;102317.19;5091256;28;20480;-61
2022/05/01 03:42:52;;;;;;;18.77;16.77;;;;;;;10.53;61.41;102318.91;5090277;28;20038;-61
2022/05/01 03:45:17;;;;;;;19.98;16.38;;;;;;;10.49;61.93;102317.66;5091346;28;20645;-61
2022/05/01 03:47:43;;;;;;;20.48;16.60;;;;;;;10.46;61.67;102311.69;5092101;28;20028;-61
2022/05/01 03:50:08;;;;;;;18.67;16.58;;;;;;;10.44;61.76;102325.75;5091945;28;20022;-61
2022/05/01 03:52:34;;;;;;;19.73;16.50;;;;;;;10.42;61.81;102319.59;5088505;28;20082;-62
2022/05/01 03:54:59;;;;;;;20.58;16.35;;;;;;;10.38;61.99;102315.53;5091449;28;20108;-61
2022/05/01 03:57:24;;;;;;;21.33;16.65;;;;;;;10.36;61.82;102328.75;5090824;28;20067;-61
2022/05/01 03:59:49;;;;;;;21.20;17.45;;;;;;;10.34;62.07;102319.81;5091194;28;20119;-61
2022/05/01 04:02:15;;;;;;;18.42;16.42;;;;;;;10.31;61.62;102318.31;5090912;28;20501;-61
2022/05/01 04:04:42;;;;;;;22.65;17.15;;;;;;;10.28;62.21;102313.19;5074279;28;20028;-61
2022/05/01 04:07:08;;;;;;;20.52;17.35;;;;;;;10.27;62.03;102316.19;5070828;28;20038;-61
2022/05/01 04:09:33;;;;;;;20.50;18.30;;;;;;;10.26;62.32;102311.72;5071398;28;20100;-61
2022/05/01 04:11:58;;;;;;;20.50;17.98;;;;;;;10.25;62.18;102318.31;5082882;28;20433;-61
2022/05/01 04:14:24;;;;;;;19.70;16.77;;;;;;;10.21;62.27;102317.00;5089774;28;20471;-61
2022/05/01 04:16:50;;;;;;;19.83;17.65;;;;;;;10.19;62.43;102327.47;5090243;28;20032;-61
2022/05/01 04:19:15;;;;;;;21.92;18.52;;;;;;;10.16;62.12;102319.56;5089644;28;20056;-61
2022/05/01 04:21:41;;;;;;;22.83;18.23;;;;;;;10.15;62.12;102317.88;5088506;28;20067;-61
2022/05/01 04:24:07;;;;;;;21.63;18.17;;;;;;;10.08;62.01;102313.16;5090280;28;20028;-61
2022/05/01 04:26:32;;;;;;;23.98;19.08;;;;;;;10.09;62.20;102312.09;5090889;28;20024;-61
2022/05/01 04:31:41;;;;;;;24.58;19.55;;;;;;;10.04;62.01;102316.59;5082256;28;20090;-61
2022/05/01 04:34:07;;;;;;;26.63;18.92;;;;;;;9.98;62.59;102321.09;5088838;28;20487;-61
2022/05/01 04:36:32;;;;;;;24.15;19.75;;;;;;;9.99;62.33;102317.25;5090484;28;20023;-61
2022/05/01 04:38:57;;;;;;;23.95;19.25;;;;;;;9.98;62.23;102320.22;5091466;28;20070;-61
2022/05/01 04:41:22;;;;;;;24.58;19.00;;;;;;;9.94;62.39;102321.69;5087408;28;20058;-61
2022/05/01 04:43:48;;;;;;;23.80;19.60;;;;;;;9.90;62.66;102314.88;5090458;28;20032;-61
2022/05/01 04:46:22;;;;;;;24.20;19.95;;;;;;;9.88;62.68;102314.25;5091094;28;20408;-62
2022/05/01 04:48:47;;;;;;;27.08;19.45;;;;;;;9.84;62.56;102317.44;5089140;28;20077;-61
2022/05/01 04:51:13;;;;;;;25.92;20.60;;;;;;;9.86;62.87;102322.75;5089908;28;20794;-61
2022/05/01 04:53:38;;;;;;;23.17;20.40;;;;;;;9.87;62.56;102323.66;5091252;28;20035;-61
2022/05/01 04:58:48;;;;;;;25.42;21.35;;;;;;;9.86;63.05;102322.75;5089721;28;20043;-61
2022/05/01 05:01:14;;;;;;;25.23;21.67;;;;;;;9.83;63.09;102337.94;5086900;28;20028;-62
2022/05/01 05:03:40;;;;;;;24.23;21.55;;;;;;;9.85;63.20;102326.63;5070025;28;20044;-61
2022/05/01 05:06:05;;;;;;;25.10;20.60;;;;;;;9.90;63.10;102323.19;5082723;28;20051;-61
2022/05/01 05:11:14;;;;;;;24.55;20.88;;;;;;;9.82;62.86;102327.03;5092447;28;20079;-62
2022/05/01 05:13:39;;;;;;;26.60;21.55;;;;;;;9.82;63.00;102329.81;5093628;28;20499;-62
2022/05/01 05:16:12;;;;;;;27.08;22.50;;;;;;;9.87;63.52;102331.97;5092273;28;20060;-61
2022/05/01 05:18:39;;;;;;;30.13;22.00;;;;;;;9.90;63.28;102329.59;5092103;28;20135;-62
2022/05/01 05:21:05;;;;;;;26.92;21.02;;;;;;;9.88;62.85;102331.75;5094040;28;20074;-62
2022/05/01 05:23:30;;;;;;;31.45;21.77;;;;;;;9.89;63.24;102330.66;5095398;28;20486;-62
2022/05/01 05:25:55;;;;;;;28.92;22.33;;;;;;;9.96;63.09;102336.22;5089828;28;20051;-61
2022/05/01 05:28:20;;;;;;;29.45;22.50;;;;;;;9.95;63.35;102337.31;5094611;28;20044;-61
2022/05/01 05:30:47;;;;;;;34.15;22.17;;;;;;;9.92;62.77;102346.03;5093813;28;20028;-61
2022/05/01 05:33:12;;;;;;;27.42;23.17;;;;;;;9.91;63.22;102342.41;5094723;28;20043;-62
2022/05/01 05:35:38;;;;;;;28.45;23.80;;;;;;;9.93;63.25;102345.81;5092552;28;20024;-62
2022/05/01 05:38:03;;;;;;;29.95;23.48;;;;;;;9.95;63.21;102346.47;5092415;28;20016;-61
2022/05/01 05:40:28;;;;;;;29.02;23.75;;;;;;;9.95;63.41;102354.78;5094259;28;20047;-61
2022/05/01 05:42:54;;;;;;;29.17;23.45;;;;;;;9.97;63.50;102347.09;5094202;28;20039;-61
2022/05/01 05:45:19;;;;;;;31.65;23.08;;;;;;;10.00;63.62;102343.91;5093163;28;20024;-62
2022/05/01 05:47:45;;;;;;;28.95;23.65;;;;;;;9.96;63.47;102350.09;5093388;28;20032;-61
2022/05/01 05:50:10;;;;;;;29.02;22.17;;;;;;;9.95;63.79;102353.94;5093565;28;20074;-61
2022/05/01 05:52:35;;;;;;;25.90;22.77;;;;;;;10.00;63.72;102351.38;5091675;28;20399;-61
2022/05/01 05:55:01;;;;;;;27.50;22.23;;;;;;;10.00;63.62;102362.47;5088387;28;20032;-61
2022/05/01 05:57:29;;;;;;;29.23;23.05;;;;;;;10.05;63.31;102357.97;5092827;28;20070;-61
2022/05/01 05:59:54;;;;;;;30.13;23.73;;;;;;;10.08;63.06;102360.34;5092084;28;20554;-62
2022/05/01 06:02:19;;;;;;;29.10;23.73;;;;;;;10.15;63.06;102359.50;5092012;28;20071;-61
2022/05/01 06:04:45;;;;;;;29.60;23.85;;;;;;;10.12;63.37;102360.75;5093205;28;20387;-61
2022/05/01 06:07:10;;;;;;;29.83;23.52;;;;;;;10.18;63.27;102361.81;5090092;28;20032;-61
2022/05/01 06:09:36;;;;;;;31.08;24.60;;;;;;;10.20;63.30;102352.22;5093171;28;20020;-61
2022/05/01 06:12:01;;;;;;;30.30;24.25;;;;;;;10.28;63.39;102362.28;5092635;28;20821;-61
2022/05/01 06:14:27;;;;;;;31.27;23.67;;;;;;;10.26;63.38;102356.97;5092458;28;20093;-61
2022/05/01 06:16:52;;;;;;;29.58;23.77;;;;;;;10.40;63.17;102366.13;5092660;28;20036;-61
2022/05/01 06:19:17;;;;;;;30.65;23.95;;;;;;;10.46;63.18;102362.50;5092059;28;20035;-61
2022/05/01 06:21:43;;;;;;;32.13;25.52;;;;;;;10.50;62.82;102362.91;5089514;28;20043;-61
2022/05/01 06:24:08;;;;;;;32.72;24.30;;;;;;;10.52;63.02;102367.16;5072136;28;20039;-61
2022/05/01 06:26:33;;;;;;;28.70;23.65;;;;;;;10.53;62.97;102368.00;5076640;28;20066;-62
2022/05/01 06:28:59;;;;;;;30.33;23.92;;;;;;;10.51;63.30;102364.63;5091049;28;20364;-61
2022/05/01 06:31:25;;;;;;;29.48;23.30;;;;;;;10.62;63.08;102365.88;5089168;28;20021;-61
2022/05/01 06:33:54;;;;;;;32.50;23.63;;;;;;;10.71;63.16;102365.44;5072615;28;20035;-61
2022/05/01 06:36:20;;;;;;;28.77;22.95;;;;;;;10.84;63.32;102366.47;5082907;28;20027;-61
2022/05/01 06:38:45;;;;;;;29.67;23.85;;;;;;;10.96;62.98;102361.94;5093207;28;20498;-61
2022/05/01 06:41:11;;;;;;;29.00;23.73;;;;;;;11.09;62.95;102366.63;5085420;28;20026;-62
2022/05/01 06:43:36;;;;;;;27.33;23.08;;;;;;;11.19;62.11;102362.28;5092786;28;20043;-61
2022/05/01 06:46:02;;;;;;;26.95;22.83;;;;;;;11.28;62.26;102365.69;5080708;28;20774;-61
2022/05/01 06:48:27;;;;;;;27.40;22.77;;;;;;;11.34;61.68;102364.78;5085275;28;20176;-62
2022/05/01 06:50:53;;;;;;;26.05;22.98;;;;;;;11.37;61.79;102369.03;5081569;28;20032;-60
2022/05/01 06:53:18;;;;;;;27.15;21.95;;;;;;;11.46;61.70;102374.13;5082699;28;20103;-61
2022/05/01 06:55:44;;;;;;;27.83;21.67;;;;;;;11.54;61.20;102365.50;5084984;28;20094;-61
2022/05/01 06:58:09;;;;;;;25.15;20.20;;;;;;;11.57;60.87;102366.16;5088925;28;20036;-62
2022/05/01 07:00:34;;;;;;;26.23;19.77;;;;;;;11.61;60.45;102368.25;5086354;28;20040;-61
2022/05/01 07:03:00;;;;;;;24.55;20.63;;;;;;;11.64;59.89;102372.53;5077566;28;20048;-61
2022/05/01 07:05:25;;;;;;;25.35;19.10;;;;;;;11.70;59.97;102368.84;5089594;28;20032;-61
2022/05/01 07:07:51;;;;;;;23.95;19.67;;;;;;;11.73;59.72;102368.41;5089026;28;20027;-61
2022/05/01 07:10:19;;;;;;;23.00;18.92;;;;;;;11.80;59.70;102369.22;5090719;28;20024;-61
2022/05/01 07:12:44;;;;;;;23.35;19.25;;;;;;;11.87;59.33;102372.84;5092739;28;20047;-61
2022/05/01 07:15:10;;;;;;;25.42;19.13;;;;;;;11.96;59.17;102374.28;5089801;28;20475;-62
2022/05/01 07:17:36;;;;;;;22.00;19.00;;;;;;;12.03;59.02;102379.78;5088186;28;20523;-62
2022/05/01 07:20:02;;;;;;;23.02;19.05;;;;;;;12.02;58.76;102376.16;5092775;28;20031;-62
2022/05/01 07:22:28;;;;;;;22.33;18.70;;;;;;;12.04;58.54;102382.34;5091361;28;20027;-62
2022/05/01 07:24:53;;;;;;;21.95;17.75;;;;;;;12.11;58.49;102382.28;5092126;28;20036;-62
2022/05/01 07:27:19;;;;;;;21.52;19.10;;;;;;;12.14;58.04;102375.41;5089103;28;20057;-62
2022/05/01 07:29:44;;;;;;;20.63;18.42;;;;;;;12.13;57.46;102380.13;5089162;28;20028;-62
2022/05/01 07:32:10;;;;;;;21.67;17.17;;;;;;;12.20;57.64;102377.31;5092535;28;20055;-59
2022/05/01 07:34:35;;;;;;;20.83;17.05;;;;;;;12.19;57.68;102379.22;5092266;28;20020;-62
2022/05/01 07:37:01;;;;;;;18.98;16.08;;;;;;;12.16;57.63;102376.06;5091665;28;20032;-61
2022/05/01 07:39:26;;;;;;;19.75;16.40;;;;;;;12.17;57.02;102380.53;5091327;28;20043;-61
2022/05/01 07:41:51;;;;;;;22.38;16.52;;;;;;;12.14;56.94;102380.97;5089607;28;20425;-61
2022/05/01 07:44:17;;;;;;;20.92;17.08;;;;;;;12.15;57.28;102383.56;5087468;28;20059;-61
2022/05/01 07:46:43;;;;;;;19.38;16.70;;;;;;;12.17;56.99;102388.88;5090487;28;20031;-62
2022/05/01 07:49:12;;;;;;;18.88;15.88;;;;;;;12.14;56.60;102383.75;5080967;28;20111;-60
2022/05/01 07:51:37;;;;;;;22.00;16.02;;;;;;;12.16;56.52;102385.25;5092136;28;20026;-61
2022/05/01 07:54:04;;;;;;;20.00;15.63;;;;;;;12.18;57.05;102385.00;5090128;28;20379;-62
2022/05/01 07:56:31;;;;;;;21.25;16.17;;;;;;;12.22;56.55;102377.91;5092029;28;20040;-61
2022/05/01 07:58:56;;;;;;;20.73;16.63;;;;;;;12.28;56.54;102382.59;5104505;28;20459;-61
2022/05/01 08:01:25;;;;;;;18.95;15.35;;;;;;;12.39;56.06;102379.06;5093198;28;20043;-61
2022/05/01 08:06:35;;;;;;;19.58;15.20;;;;;;;12.73;54.86;102371.22;5086397;28;21065;-63
2022/05/01 08:09:01;;;;;;;21.05;14.55;;;;;;;12.89;54.48;102373.41;5108684;28;20494;-63
2022/05/01 08:11:26;;;;;;;20.17;13.75;;;;;;;13.03;53.33;102376.88;5082474;28;20111;-62
2022/05/01 08:13:52;;;;;;;18.05;13.75;;;;;;;13.13;53.18;102365.22;5088198;28;20533;-62
2022/05/01 08:16:17;;;;;;;15.60;13.10;;;;;;;13.21;52.83;102364.88;5093114;28;20066;-63
2022/05/01 08:21:31;;;;;;;13.43;10.88;;;;;;;13.42;51.04;102369.13;5090808;28;20050;-62
2022/05/01 08:23:56;;;;;;;14.15;11.68;;;;;;;13.46;50.39;102356.44;5089791;28;20035;-62
2022/05/01 08:26:22;;;;;;;14.30;10.88;;;;;;;13.54;50.43;102358.03;5099147;28;20028;-61
2022/05/01 08:28:51;;;;;;;17.20;12.18;;;;;;;13.68;51.37;102365.13;5090260;28;20547;-62
2022/05/01 08:31:17;;;;;;;16.23;12.95;;;;;;;13.78;51.04;102353.38;5087928;28;20024;-61
2022/05/01 08:33:42;;;;;;;18.30;12.70;;;;;;;13.91;50.94;102353.16;5088048;28;20030;-60
2022/05/01 08:36:13;;;;;;;14.82;12.20;;;;;;;14.00;49.66;102355.38;5088695;28;20089;-60
2022/05/01 08:38:39;;;;;;;13.68;11.23;;;;;;;14.07;49.58;102346.91;5089565;28;20482;-61
2022/05/01 08:41:06;;;;;;;16.75;11.93;;;;;;;14.17;49.81;102358.31;5089462;28;20032;-63
2022/05/01 08:43:32;;;;;;;15.85;11.60;;;;;;;14.28;49.07;102355.81;5085288;28;20035;-62
2022/05/01 08:46:10;;;;;;;15.07;11.30;;;;;;;14.39;48.98;102347.44;5090720;28;20039;-62
2022/05/01 08:49:17;;;;;;;13.73;11.23;;;;;;;14.57;48.98;102351.22;5092299;28;20391;-62
2022/05/01 08:51:43;;;;;;;9.65;7.75;;;;;;;14.67;46.05;102351.47;5090984;28;20051;-62
2022/05/01 08:54:11;;;;;;;10.95;9.85;;;;;;;14.80;46.60;102344.75;5090090;28;20114;-62
2022/05/01 08:56:40;;;;;;;11.60;9.15;;;;;;;14.93;44.99;102350.97;5081668;28;20086;-62
2022/05/01 08:59:09;;;;;;;13.00;8.60;;;;;;;15.01;44.71;102349.69;5089858;28;20090;-62
2022/05/01 09:01:35;;;;;;;9.85;8.02;;;;;;;15.15;44.55;102341.91;5081210;28;20101;-62
2022/05/01 09:04:02;;;;;;;10.40;7.93;;;;;;;15.19;44.13;102343.09;5093477;28;20093;-62
2022/05/01 09:06:28;;;;;;;7.78;6.28;;;;;;;15.24;42.48;102348.78;5105655;28;20031;-61
2022/05/01 09:08:56;;;;;;;8.63;6.45;;;;;;;15.15;39.89;102341.91;5113308;28;20020;-62
2022/05/01 09:14:09;;;;;;;9.27;6.63;;;;;;;14.90;41.25;102345.84;5098132;28;20604;-61
2022/05/01 09:16:36;;;;;;;10.30;7.70;;;;;;;14.80;42.53;102350.34;5093068;28;20024;-62
2022/05/01 09:19:02;;;;;;;12.43;7.10;;;;;;;14.74;41.45;102346.59;5094684;28;20020;-61
2022/05/01 09:21:47;;;;;;;9.48;7.35;;;;;;;14.66;42.77;102350.63;5085781;28;20032;-63
2022/05/01 09:24:12;;;;;;;8.90;6.88;;;;;;;14.54;41.06;102346.09;5091237;28;20103;-63
2022/05/01 09:26:38;;;;;;;9.88;7.57;;;;;;;14.47;40.67;102340.63;5091518;28;20063;-62
2022/05/01 09:29:03;;;;;;;10.10;7.03;;;;;;;14.38;40.22;102337.34;5097161;28;20386;-63
2022/05/01 09:31:48;;;;;;;9.20;6.80;;;;;;;14.40;42.60;102357.50;5097633;28;20039;-63
2022/05/01 09:34:24;;;;;;;10.10;7.40;;;;;;;14.32;41.14;102348.63;5093543;28;20024;-64
2022/05/01 09:36:51;;;;;;;9.27;7.78;;;;;;;14.21;41.66;102358.69;5084263;28;20035;-63
2022/05/01 09:39:18;;;;;;;9.68;8.05;;;;;;;14.16;40.49;102361.38;5082487;28;20074;-63
2022/05/01 09:41:44;;;;;;;8.32;7.43;;;;;;;14.15;41.16;102354.09;5083407;28;20066;-62
2022/05/01 09:44:13;;;;;;;9.65;7.72;;;;;;;14.15;41.45;102356.88;5091810;28;20067;-62
2022/05/01 09:46:39;;;;;;;13.98;7.25;;;;;;;14.14;41.17;102347.63;5088491;28;20058;-62
2022/05/01 09:49:13;;;;;;;11.35;7.97;;;;;;;14.11;41.26;102348.13;5086366;28;20024;-63
2022/05/01 09:51:46;;;;;;;11.02;7.03;;;;;;;14.09;41.91;102347.50;5091292;28;20039;-63
2022/05/01 09:54:18;;;;;;;11.23;7.40;;;;;;;14.16;41.59;102350.19;5090094;28;20028;-63
2022/05/01 09:56:47;;;;;;;8.68;7.57;;;;;;;14.19;41.18;102344.16;5090491;28;20043;-63
2022/05/01 09:59:17;;;;;;;9.20;7.63;;;;;;;14.23;41.97;102345.38;5084041;28;20480;-63
2022/05/01 10:01:57;;;;;;;10.05;7.20;;;;;;;14.24;41.71;102347.06;5089143;28;20446;-63
2022/05/01 10:04:23;;;;;;;8.48;7.60;;;;;;;14.21;40.85;102336.34;5080723;28;20028;-63
2022/05/01 10:06:52;;;;;;;10.73;7.90;;;;;;;14.23;41.30;102340.63;5080797;28;20069;-63
2022/05/01 10:09:19;;;;;;;9.70;7.85;;;;;;;14.26;40.33;102339.25;5091613;28;20028;-62
2022/05/01 10:11:46;;;;;;;9.68;7.57;;;;;;;14.25;40.65;102340.38;5089935;28;20035;-62
2022/05/01 10:14:12;;;;;;;10.57;7.25;;;;;;;14.22;41.12;102336.09;5080417;28;20062;-62
2022/05/01 10:16:40;;;;;;;8.48;7.22;;;;;;;14.19;40.28;102336.63;5091398;28;20107;-63
2022/05/01 10:19:06;;;;;;;9.27;7.72;;;;;;;14.17;40.13;102336.00;5103964;28;20019;-64
2022/05/01 10:21:33;;;;;;;9.63;7.32;;;;;;;14.17;40.28;102335.13;5087237;28;20038;-63
2022/05/01 10:24:01;;;;;;;11.27;7.40;;;;;;;14.17;40.33;102332.34;5089778;28;20043;-62
2022/05/01 10:26:32;;;;;;;12.57;8.38;;;;;;;14.09;40.32;102330.75;5094376;28;20024;-63
2022/05/01 10:29:36;;;;;;;9.65;8.25;;;;;;;14.11;41.57;102334.19;5089414;28;20430;-63
2022/05/01 10:32:21;;;;;;;9.82;7.65;;;;;;;14.08;41.05;102331.00;5078845;28;20391;-62
2022/05/01 10:35:10;;;;;;;8.55;7.10;;;;;;;14.14;40.80;102316.06;5111457;28;20056;-62
2022/05/01 10:38:02;;;;;;;9.45;7.18;;;;;;;14.17;41.19;102312.81;5082510;28;20039;-63
2022/05/01 10:41:00;;;;;;;9.77;7.57;;;;;;;14.27;42.01;102320.59;5094197;28;20074;-64
2022/05/01 10:43:36;;;;;;;9.43;7.47;;;;;;;14.21;40.39;102312.06;5078327;28;20052;-64
2022/05/01 10:46:04;;;;;;;10.25;7.13;;;;;;;14.14;39.81;102314.13;5098505;28;20088;-64
2022/05/01 10:48:30;;;;;;;9.23;7.90;;;;;;;14.18;40.14;102308.91;5090587;28;20036;-64
2022/05/01 10:50:56;;;;;;;11.68;7.78;;;;;;;14.12;39.77;102307.94;5094885;28;20047;-65
2022/05/01 10:53:21;;;;;;;9.38;8.02;;;;;;;14.12;39.61;102312.69;5094256;28;20024;-64
2022/05/01 10:55:52;;;;;;;8.65;6.82;;;;;;;14.17;39.51;102308.06;5096549;28;20050;-65
2022/05/01 10:58:28;;;;;;;9.15;6.80;;;;;;;14.18;39.99;102304.16;5091935;27;20032;-64
2022/05/01 11:00:55;;;;;;;9.15;7.45;;;;;;;14.20;39.16;102301.16;5096829;28;20032;-63
2022/05/01 11:03:32;;;;;;;10.15;7.07;;;;;;;14.29;39.87;102294.09;5101584;28;20050;-61
2022/05/01 11:06:04;;;;;;;8.50;7.20;;;;;;;14.34;39.50;102294.22;5095163;28;20111;-60
2022/05/01 11:08:33;;;;;;;8.97;7.40;;;;;;;14.41;39.70;102291.31;5090669;28;20029;-61
2022/05/01 11:10:59;;;;;;;9.63;7.22;;;;;;;14.40;39.47;102293.25;5089082;28;20380;-61
2022/05/01 11:13:31;;;;;;;8.55;7.47;;;;;;;14.46;39.65;102297.88;5085973;28;20032;-62
2022/05/01 11:15:57;;;;;;;11.05;7.47;;;;;;;14.51;39.11;102291.59;5087291;28;20107;-62
2022/05/01 11:18:33;;;;;;;8.30;7.07;;;;;;;14.58;39.82;102288.66;5089770;28;20095;-62
2022/05/01 11:21:23;;;;;;;8.25;7.32;;;;;;;14.63;40.37;102288.78;5090943;28;20027;-61
2022/05/01 11:24:02;;;;;;;9.55;8.27;;;;;;;14.78;41.41;102280.72;5092602;28;20486;-61
2022/05/01 11:26:28;;;;;;;9.20;7.30;;;;;;;14.80;38.76;102272.94;5086767;28;20028;-61
2022/05/01 11:29:13;;;;;;;9.70;7.50;;;;;;;14.87;39.85;102270.00;5079511;28;20036;-61
2022/05/01 11:31:39;;;;;;;8.10;7.15;;;;;;;14.87;38.57;102259.66;5085591;28;20047;-61
2022/05/01 11:34:16;;;;;;;9.38;7.00;;;;;;;15.01;39.58;102264.97;5094999;28;20043;-60
2022/05/01 11:37:09;;;;;;;9.13;7.20;;;;;;;15.00;39.26;102258.53;5085513;28;20032;-61
2022/05/01 11:39:47;;;;;;;;;;;;;;;15.13;40.51;102271.34;5092209;28;20046;-61
2022/05/01 11:42:24;;;;;;;10.52;7.57;;;;;;;15.11;39.61;102257.63;5091373;28;20378;-61
2022/05/01 11:44:50;;;;;;;11.02;7.07;;;;;;;15.10;38.94;102255.94;5091886;28;20083;-61
2022/05/01 11:47:19;;;;;;;8.68;7.28;;;;;;;15.14;39.43;102254.34;5091637;28;20020;-61
2022/05/01 11:49:47;;;;;;;7.88;6.70;;;;;;;15.15;39.93;102252.41;5090990;28;20032;-61